Time;durP1;ratioP1;P1;durP2;ratioP2;P2;SDS_P1;SDS_P2;PMS_P1;PMS_P2;Temp;Humidity;BMP_temperature;BMP_pressure;BME280_temperature;BME280_humidity;BME280_pressure;Samples;Min_cycle;Max_cycle;Signal;HPM_P1;HPM_P2
2021/01/09 00:00:44;;;;;;;20.90;11.57;;;;;;;1.17;94.82;96274.69;5079559;28;20445;-86
2021/01/09 00:03:11;;;;;;;19.70;11.90;;;;;;;1.17;95.64;96274.69;5079796;28;20536;-87
2021/01/09 00:05:37;;;;;;;18.80;11.47;;;;;;;1.14;94.96;96277.59;5099471;28;20449;-88
2021/01/09 00:08:04;;;;;;;18.43;11.33;;;;;;;1.26;94.57;96279.06;5102219;28;20434;-90
2021/01/09 00:10:30;;;;;;;21.10;11.67;;;;;;;1.24;94.51;96276.16;5102214;28;20418;-88
2021/01/09 00:12:57;;;;;;;21.03;11.60;;;;;;;1.17;94.59;96274.69;5099739;28;20433;-89
2021/01/09 00:15:24;;;;;;;16.53;11.83;;;;;;;1.15;94.88;96277.13;5078838;28;20996;-89
2021/01/09 00:17:51;;;;;;;17.47;11.20;;;;;;;1.11;94.99;96276.63;5079436;28;20430;-89
2021/01/09 00:20:17;;;;;;;20.00;11.73;;;;;;;1.05;94.82;96275.88;5079383;28;20460;-89
2021/01/09 00:22:44;;;;;;;22.10;13.60;;;;;;;1.00;95.46;96271.28;5078854;28;20528;-88
2021/01/09 00:25:16;;;;;;;19.97;11.37;;;;;;;1.03;95.64;96273.69;5079106;28;20441;-89
2021/01/09 00:27:42;;;;;;;20.00;12.10;;;;;;;1.06;95.03;96275.41;5078982;28;20433;-88
2021/01/09 00:30:10;;;;;;;18.63;12.97;;;;;;;1.06;95.38;96280.72;5079439;28;20441;-89
2021/01/09 00:32:37;;;;;;;19.17;12.43;;;;;;;1.14;94.88;96272.28;5088432;28;20452;-88
2021/01/09 00:35:04;;;;;;;20.00;12.10;;;;;;;1.04;95.41;96274.41;5081026;28;20477;-89
2021/01/09 00:37:30;;;;;;;21.10;12.37;;;;;;;1.04;95.23;96280.44;5078570;28;20502;-88
2021/01/09 00:39:57;;;;;;;21.03;12.37;;;;;;;1.04;95.35;96267.16;5078454;28;20433;-89
2021/01/09 00:42:23;;;;;;;20.30;12.37;;;;;;;1.20;95.17;96273.75;5078063;28;20521;-89
2021/01/09 00:44:50;;;;;;;16.10;10.47;;;;;;;1.18;94.72;96276.16;5078323;28;20810;-89
2021/01/09 00:47:16;;;;;;;19.43;12.57;;;;;;;1.11;94.32;96283.84;5078574;28;20830;-89
2021/01/09 00:49:43;;;;;;;18.53;11.93;;;;;;;1.11;94.92;96270.56;5078536;28;20458;-89
2021/01/09 00:52:10;;;;;;;23.27;12.47;;;;;;;1.11;94.56;96267.91;5078053;28;21013;-89
2021/01/09 00:54:37;;;;;;;20.70;11.70;;;;;;;0.99;94.66;96275.88;5079552;28;20473;-88
2021/01/09 00:57:04;;;;;;;20.33;13.00;;;;;;;1.03;94.58;96283.59;5094078;28;20445;-87
2021/01/09 00:59:30;;;;;;;19.03;12.00;;;;;;;0.98;94.84;96278.97;5099225;28;20410;-87
2021/01/09 01:01:57;;;;;;;17.30;11.27;;;;;;;0.99;95.03;96286.47;5098034;28;20424;-87
2021/01/09 01:04:23;;;;;;;17.90;11.43;;;;;;;1.02;94.58;96288.19;5099792;28;20462;-88
2021/01/09 01:06:51;;;;;;;19.50;11.93;;;;;;;1.06;95.35;96293.28;5099854;28;20462;-87
2021/01/09 01:09:18;;;;;;;16.67;10.70;;;;;;;1.02;95.05;96290.84;5083080;28;20793;-88
2021/01/09 01:11:44;;;;;;;18.03;11.40;;;;;;;1.08;95.15;96298.81;5079271;28;20437;-88
2021/01/09 01:14:11;;;;;;;19.63;12.47;;;;;;;1.12;94.52;96293.28;5081729;28;20477;-88
2021/01/09 01:16:37;;;;;;;18.00;11.93;;;;;;;1.11;94.91;96289.91;5089102;28;20441;-87
2021/01/09 01:19:04;;;;;;;18.97;12.17;;;;;;;1.19;94.39;96295.50;5099674;28;20446;-87
2021/01/09 01:21:34;;;;;;;17.20;10.90;;;;;;;1.12;94.35;96295.94;5079313;28;20905;-88
2021/01/09 01:24:01;;;;;;;15.13;10.10;;;;;;;1.14;93.88;96298.84;5078442;28;20465;-89
2021/01/09 01:26:28;;;;;;;19.17;12.20;;;;;;;1.12;94.49;96296.66;5078674;28;20442;-88
2021/01/09 01:28:54;;;;;;;17.03;11.43;;;;;;;1.15;94.62;96298.38;5077249;28;20483;-89
2021/01/09 01:31:23;;;;;;;26.13;12.03;;;;;;;1.25;93.36;96293.56;5078179;28;20922;-89
2021/01/09 01:33:49;;;;;;;19.00;11.20;;;;;;;1.18;93.50;96297.41;5077950;28;20449;-89
2021/01/09 01:36:15;;;;;;;19.10;11.80;;;;;;;1.27;93.44;96291.16;5078466;28;20533;-89
2021/01/09 01:38:42;;;;;;;19.13;11.30;;;;;;;1.20;93.85;96302.22;5077328;28;20449;-90
2021/01/09 01:41:10;;;;;;;16.10;11.03;;;;;;;1.18;94.00;96296.69;5076280;28;20442;-89
2021/01/09 01:43:38;;;;;;;18.17;12.47;;;;;;;1.27;94.67;96293.81;5076683;28;20457;-89
2021/01/09 01:46:06;;;;;;;20.17;12.33;;;;;;;1.29;94.11;96307.34;5077184;28;20448;-89
2021/01/09 01:48:33;;;;;;;18.73;11.67;;;;;;;1.32;94.40;96307.09;5078436;28;20434;-89
2021/01/09 01:50:59;;;;;;;24.07;12.60;;;;;;;1.31;94.32;96307.59;5081819;28;20445;-89
2021/01/09 01:53:27;;;;;;;19.90;12.47;;;;;;;1.29;94.50;96304.66;5078743;28;21003;-89
2021/01/09 01:55:54;;;;;;;23.27;12.67;;;;;;;1.20;94.75;96307.53;5080693;28;21008;-89
2021/01/09 01:58:21;;;;;;;24.43;13.93;;;;;;;1.23;94.92;96309.25;5076901;28;20451;-89
2021/01/09 02:00:49;;;;;;;22.37;13.40;;;;;;;1.23;94.74;96304.66;5077257;28;20429;-89
2021/01/09 02:03:16;;;;;;;22.67;14.20;;;;;;;1.22;95.26;96315.78;5077443;28;20455;-89
2021/01/09 02:05:52;;;;;;;19.40;12.53;;;;;;;1.55;93.82;96310.53;5076922;28;20965;-89
2021/01/09 02:08:23;;;;;;;19.93;12.43;;;;;;;1.50;93.17;96311.28;5077564;28;20430;-89
2021/01/09 02:10:54;;;;;;;17.10;11.60;;;;;;;1.46;93.35;96313.44;5078139;28;20891;-89
2021/01/09 02:13:31;;;;;;;28.37;15.17;;;;;;;1.43;92.77;96311.72;5081247;28;20469;-89
2021/01/09 02:15:58;;;;;;;20.77;12.40;;;;;;;1.40;92.86;96318.00;5079633;28;20461;-88
2021/01/09 02:18:26;;;;;;;21.97;13.07;;;;;;;1.20;93.69;96308.28;5085290;28;20505;-89
2021/01/09 02:21:00;;;;;;;20.00;12.33;;;;;;;1.10;94.84;96312.34;5088856;28;20430;-86
2021/01/09 02:23:27;;;;;;;22.50;12.57;;;;;;;1.11;94.75;96313.81;5093441;28;20458;-89
2021/01/09 02:25:53;;;;;;;20.37;12.63;;;;;;;0.95;95.63;96317.84;5076212;28;20438;-89
2021/01/09 02:28:20;;;;;;;23.23;13.67;;;;;;;0.86;96.37;96314.66;5076055;28;20494;-89
2021/01/09 02:30:48;;;;;;;25.13;14.93;;;;;;;0.88;96.35;96323.59;5076024;28;20480;-89
2021/01/09 02:33:18;;;;;;;28.53;15.20;;;;;;;0.84;96.57;96315.16;5077174;28;20493;-88
2021/01/09 02:35:46;;;;;;;27.70;14.80;;;;;;;0.80;96.54;96313.91;5077006;28;20499;-90
2021/01/09 02:38:13;;;;;;;25.93;14.93;;;;;;;0.78;97.08;96316.34;5076522;28;20493;-89
2021/01/09 02:40:41;;;;;;;23.27;13.50;;;;;;;0.86;96.45;96314.66;5076477;28;20442;-88
2021/01/09 02:43:10;;;;;;;21.30;13.47;;;;;;;0.74;97.66;96302.53;5076298;28;20434;-89
2021/01/09 02:45:37;;;;;;;22.87;14.13;;;;;;;0.68;98.11;96301.78;5075906;28;20472;-88
2021/01/09 02:48:04;;;;;;;27.40;14.63;;;;;;;0.67;98.15;96301.06;5075351;28;20471;-88
2021/01/09 02:50:31;;;;;;;24.50;15.07;;;;;;;0.75;97.99;96304.00;5076539;28;20517;-88
2021/01/09 02:52:57;;;;;;;25.23;14.67;;;;;;;0.65;98.18;96300.81;5074825;28;20449;-88
2021/01/09 02:55:24;;;;;;;26.67;14.73;;;;;;;0.59;98.74;96302.00;5075369;28;20470;-88
2021/01/09 02:57:51;;;;;;;24.97;15.53;;;;;;;0.59;99.23;96299.34;5075505;28;20445;-88
2021/01/09 03:00:19;;;;;;;26.63;15.80;;;;;;;0.57;99.46;96307.75;5075522;28;20449;-88
2021/01/09 03:02:46;;;;;;;31.37;16.47;;;;;;;0.50;99.91;96308.94;5082665;28;20425;-85
2021/01/09 03:05:13;;;;;;;33.83;19.03;;;;;;;0.57;99.66;96315.72;5099027;28;20421;-84
2021/01/09 03:07:40;;;;;;;31.07;17.07;;;;;;;0.65;99.65;96311.44;5099090;28;20440;-85
2021/01/09 03:10:07;;;;;;;31.07;17.00;;;;;;;0.54;99.84;96314.03;5099020;28;20452;-85
2021/01/09 03:12:34;;;;;;;33.70;17.17;;;;;;;0.51;100.00;96315.69;5087966;28;20793;-88
2021/01/09 03:15:01;;;;;;;34.40;18.40;;;;;;;0.66;99.80;96322.78;5075467;28;20493;-88
2021/01/09 03:17:28;;;;;;;31.87;16.33;;;;;;;0.60;99.58;96322.75;5075359;28;20441;-88
2021/01/09 03:19:54;;;;;;;30.87;16.67;;;;;;;0.72;99.38;96328.84;5075412;28;20460;-88
2021/01/09 03:22:20;;;;;;;32.83;17.53;;;;;;;0.81;99.64;96320.69;5074889;28;20436;-88
2021/01/09 03:24:47;;;;;;;31.77;17.67;;;;;;;0.97;98.96;96320.75;5074541;28;20462;-88
2021/01/09 03:27:13;;;;;;;32.90;17.23;;;;;;;1.05;98.03;96326.34;5074718;28;20444;-88
2021/01/09 03:29:40;;;;;;;30.63;17.27;;;;;;;1.06;97.82;96331.19;5075283;28;20437;-88
2021/01/09 03:32:07;;;;;;;34.50;18.50;;;;;;;0.91;97.58;96327.97;5077025;28;20442;-88
2021/01/09 03:34:33;;;;;;;30.53;17.30;;;;;;;1.12;97.78;96330.47;5079571;28;20492;-88
2021/01/09 03:37:00;;;;;;;27.80;16.13;;;;;;;1.06;97.46;96331.19;5079121;28;20422;-88
2021/01/09 03:39:26;;;;;;;25.27;15.07;;;;;;;0.88;98.31;96336.16;5079378;28;20445;-87
2021/01/09 03:41:52;;;;;;;32.83;17.87;;;;;;;0.70;98.54;96325.94;5079332;28;20819;-88
2021/01/09 03:44:19;;;;;;;29.47;17.63;;;;;;;0.79;98.84;96329.13;5079514;28;20465;-88
2021/01/09 03:46:45;;;;;;;33.27;17.97;;;;;;;0.80;99.15;96327.19;5079621;28;20449;-88
2021/01/09 03:49:13;;;;;;;29.47;18.27;;;;;;;0.77;99.22;96336.09;5082643;28;20497;-87
2021/01/09 03:51:39;;;;;;;32.80;18.77;;;;;;;0.84;98.68;96331.09;5084135;28;20464;-88
2021/01/09 03:54:05;;;;;;;29.50;16.80;;;;;;;0.80;98.54;96330.56;5078794;28;20511;-88
2021/01/09 03:56:32;;;;;;;28.43;16.50;;;;;;;0.59;99.44;96334.56;5078747;28;20885;-88
2021/01/09 03:58:59;;;;;;;27.90;15.90;;;;;;;0.63;99.78;96331.69;5078073;28;20444;-88
2021/01/09 04:01:25;;;;;;;31.83;18.77;;;;;;;0.80;99.99;96332.50;5078683;28;20941;-88
2021/01/09 04:03:51;;;;;;;34.40;18.30;;;;;;;0.71;99.20;96341.41;5078870;28;20465;-88
2021/01/09 04:06:19;;;;;;;35.37;18.37;;;;;;;0.70;99.65;96334.63;5079592;28;20429;-88
2021/01/09 04:08:45;;;;;;;31.07;18.13;;;;;;;0.79;100.00;96331.78;5078754;28;20448;-88
2021/01/09 04:11:11;;;;;;;27.93;15.93;;;;;;;1.01;99.44;96339.84;5078805;28;20529;-88
2021/01/09 04:13:38;;;;;;;30.70;17.13;;;;;;;1.08;98.22;96341.31;5078673;28;20559;-87
2021/01/09 04:16:04;;;;;;;31.70;16.77;;;;;;;1.06;98.37;96335.78;5078834;28;20479;-88
2021/01/09 04:18:31;;;;;;;25.90;16.27;;;;;;;1.04;98.26;96333.56;5078706;28;20437;-89
2021/01/09 04:20:57;;;;;;;35.27;17.80;;;;;;;1.11;98.38;96342.28;5078605;28;20441;-88
2021/01/09 04:23:25;;;;;;;29.87;17.23;;;;;;;1.17;97.83;96332.41;5078355;28;20477;-88
2021/01/09 04:25:51;;;;;;;35.40;18.00;;;;;;;1.13;97.60;96339.91;5078945;28;20474;-88
2021/01/09 04:28:17;;;;;;;29.70;16.43;;;;;;;1.15;97.76;96334.84;5078964;28;20945;-88
2021/01/09 04:30:44;;;;;;;31.33;18.07;;;;;;;1.14;98.04;96336.03;5079001;28;20434;-88
2021/01/09 04:33:10;;;;;;;31.53;17.13;;;;;;;1.13;97.70;96334.59;5078489;28;20978;-88
2021/01/09 04:35:36;;;;;;;27.70;17.13;;;;;;;1.13;97.23;96337.94;5078593;28;20488;-88
2021/01/09 04:38:03;;;;;;;30.87;18.93;;;;;;;1.04;98.06;96335.50;5078353;28;20445;-88
2021/01/09 04:40:30;;;;;;;35.63;20.90;;;;;;;0.97;98.61;96339.34;5078387;28;20454;-88
2021/01/09 04:42:56;;;;;;;36.90;18.93;;;;;;;0.98;98.71;96343.47;5077385;28;20441;-88
2021/01/09 04:45:23;;;;;;;35.60;19.80;;;;;;;0.90;98.93;96339.06;5078916;28;20571;-89
2021/01/09 04:47:51;;;;;;;39.03;19.50;;;;;;;0.85;99.39;96337.09;5078043;28;20450;-89
2021/01/09 04:50:18;;;;;;;35.20;18.73;;;;;;;0.92;99.69;96340.06;5078153;28;20444;-89
2021/01/09 04:52:46;;;;;;;30.03;19.40;;;;;;;1.01;99.26;96339.13;5078294;28;20443;-89
2021/01/09 04:55:13;;;;;;;35.00;19.13;;;;;;;1.06;98.74;96343.75;5077835;28;20508;-89
2021/01/09 04:57:40;;;;;;;34.47;18.57;;;;;;;1.10;98.73;96354.16;5078009;28;20449;-89
2021/01/09 05:00:07;;;;;;;33.83;20.60;;;;;;;1.16;98.63;96346.94;5078257;28;20414;-89
2021/01/09 05:02:36;;;;;;;33.57;19.20;;;;;;;1.10;98.67;96349.53;5077866;28;20437;-89
2021/01/09 05:05:04;;;;;;;34.13;20.20;;;;;;;1.12;98.37;96347.16;5078073;28;20521;-89
2021/01/09 05:07:30;;;;;;;32.83;19.40;;;;;;;1.02;99.01;96348.53;5081893;28;21026;-89
2021/01/09 05:10:12;;;;;;;40.27;21.67;;;;;;;0.94;99.38;96342.94;5085189;28;20452;-89
2021/01/09 05:12:41;;;;;;;38.57;21.67;;;;;;;0.94;100.00;96348.25;5084866;28;20460;-89
2021/01/09 05:15:08;;;;;;;36.43;21.00;;;;;;;0.83;100.00;96353.53;5086617;28;20546;-89
2021/01/09 05:17:35;;;;;;;40.23;19.93;;;;;;;0.66;100.00;96347.38;5084501;28;20478;-87
2021/01/09 05:20:04;;;;;;;35.23;20.80;;;;;;;0.59;100.00;96349.75;5099866;28;20438;-86
2021/01/09 05:22:31;;;;;;;37.37;21.43;;;;;;;0.54;100.00;96345.88;5100648;28;20433;-86
2021/01/09 05:24:57;;;;;;;40.13;21.27;;;;;;;0.49;100.00;96352.59;5095547;28;20458;-89
2021/01/09 05:27:24;;;;;;;43.50;22.53;;;;;;;0.66;100.00;96352.69;5078748;28;21020;-89
2021/01/09 05:29:55;;;;;;;46.20;21.47;;;;;;;0.58;100.00;96351.69;5078335;28;20464;-89
2021/01/09 05:32:22;;;;;;;40.50;22.30;;;;;;;0.67;100.00;96353.41;5077723;28;20479;-89
2021/01/09 05:34:49;;;;;;;39.10;21.67;;;;;;;0.60;100.00;96357.25;5078138;28;20495;-89
2021/01/09 05:37:17;;;;;;;41.77;24.20;;;;;;;0.58;100.00;96353.63;5079411;28;20440;-89
2021/01/09 05:39:52;;;;;;;40.37;21.50;;;;;;;0.66;100.00;96352.00;5077566;28;21046;-89
2021/01/09 05:42:23;;;;;;;41.10;21.93;;;;;;;0.56;100.00;96351.44;5077045;28;20444;-89
2021/01/09 05:44:55;;;;;;;44.20;22.17;;;;;;;0.59;100.00;96355.81;5077683;28;20544;-89
2021/01/09 05:47:23;;;;;;;44.43;24.10;;;;;;;0.59;100.00;96363.03;5077469;28;20493;-89
2021/01/09 05:49:51;;;;;;;41.07;21.77;;;;;;;0.76;100.00;96359.28;5077649;28;20429;-90
2021/01/09 05:52:17;;;;;;;46.33;24.20;;;;;;;0.74;100.00;96366.25;5077894;28;20453;-88
2021/01/09 05:54:44;;;;;;;41.40;23.23;;;;;;;0.71;100.00;96370.59;5076685;28;20484;-89
2021/01/09 05:57:16;;;;;;;44.53;23.50;;;;;;;0.71;100.00;96364.56;5076759;28;20422;-89
2021/01/09 05:59:43;;;;;;;39.13;21.43;;;;;;;0.50;100.00;96361.31;5090133;28;20416;-88
2021/01/09 06:02:12;;;;;;;47.53;25.47;;;;;;;0.57;100.00;96373.38;5099914;28;20422;-86
2021/01/09 06:04:44;;;;;;;44.57;23.43;;;;;;;0.75;100.00;96368.44;5099890;28;20487;-85
2021/01/09 06:07:19;;;;;;;41.00;22.10;;;;;;;0.74;100.00;96364.34;5099976;28;20508;-85
2021/01/09 06:09:51;;;;;;;40.03;21.73;;;;;;;0.76;100.00;96359.28;5099798;28;20473;-85
2021/01/09 06:12:21;;;;;;;50.30;25.30;;;;;;;0.75;100.00;96367.72;5095693;28;20425;-88
2021/01/09 06:14:50;;;;;;;48.57;25.20;;;;;;;0.72;100.00;96366.03;5079106;28;20492;-89
2021/01/09 06:17:18;;;;;;;48.63;24.47;;;;;;;0.66;100.00;96360.66;5079789;28;20433;-89
2021/01/09 06:19:46;;;;;;;46.30;24.67;;;;;;;0.63;100.00;96374.19;5078919;28;20528;-89
2021/01/09 06:22:13;;;;;;;47.03;23.67;;;;;;;0.69;100.00;96372.97;5079660;28;20964;-88
2021/01/09 06:24:40;;;;;;;44.53;24.07;;;;;;;0.87;100.00;96377.94;5079517;28;20457;-89
2021/01/09 06:27:10;;;;;;;50.27;25.47;;;;;;;0.75;100.00;96379.06;5078895;28;20433;-88
2021/01/09 06:29:40;;;;;;;43.37;23.77;;;;;;;0.74;100.00;96376.88;5077528;28;20433;-88
2021/01/09 06:32:09;;;;;;;46.57;24.67;;;;;;;0.65;100.00;96383.13;5085946;28;20406;-88
2021/01/09 06:34:39;;;;;;;44.77;22.70;;;;;;;0.61;100.00;96387.91;5079122;28;20457;-88
2021/01/09 06:37:06;;;;;;;40.47;23.10;;;;;;;0.59;100.00;96392.22;5078464;28;20439;-88
2021/01/09 06:39:34;;;;;;;48.33;24.63;;;;;;;0.50;100.00;96390.50;5079035;28;20434;-88
2021/01/09 06:42:04;;;;;;;47.10;24.10;;;;;;;0.60;100.00;96394.41;5077915;28;20801;-88
2021/01/09 06:44:31;;;;;;;47.60;22.60;;;;;;;0.68;100.00;96389.41;5077871;28;20454;-88
2021/01/09 06:46:59;;;;;;;49.80;25.10;;;;;;;0.68;100.00;96386.75;5079353;28;20443;-90
2021/01/09 06:49:26;;;;;;;44.70;24.23;;;;;;;0.72;100.00;96390.63;5078478;28;20535;-88
2021/01/09 06:51:55;;;;;;;49.97;25.30;;;;;;;0.43;100.00;96385.63;5077257;28;20467;-88
2021/01/09 06:54:27;;;;;;;43.60;25.40;;;;;;;0.47;100.00;96389.50;5077651;28;20480;-88
2021/01/09 06:57:09;;;;;;;53.23;26.40;;;;;;;0.50;100.00;96387.84;5076664;28;20449;-89
2021/01/09 06:59:37;;;;;;;43.10;23.57;;;;;;;0.58;100.00;96388.84;5075864;28;21003;-88
2021/01/09 07:02:25;;;;;;;52.33;25.07;;;;;;;0.44;100.00;96390.44;5075907;28;20450;-88
2021/01/09 07:05:04;;;;;;;44.67;24.47;;;;;;;0.56;100.00;96396.56;5079593;28;21019;-88
2021/01/09 07:07:39;;;;;;;46.23;24.20;;;;;;;0.48;100.00;96390.94;5077941;28;20426;-89
2021/01/09 07:10:08;;;;;;;53.77;25.83;;;;;;;0.62;100.00;96392.03;5076175;28;20418;-90
2021/01/09 07:12:35;;;;;;;49.70;24.97;;;;;;;0.49;100.00;96389.75;5075689;28;20914;-89
2021/01/09 07:15:04;;;;;;;55.53;26.97;;;;;;;0.48;100.00;96393.59;5076637;28;20542;-89
2021/01/09 07:17:34;;;;;;;58.47;29.37;;;;;;;0.57;100.00;96395.34;5076365;28;20454;-89
2021/01/09 07:20:04;;;;;;;54.70;26.97;;;;;;;0.73;100.00;96401.97;5075857;28;20446;-88
2021/01/09 07:22:32;;;;;;;65.73;29.47;;;;;;;0.58;100.00;96404.03;5075990;28;20437;-88
2021/01/09 07:25:01;;;;;;;50.30;27.03;;;;;;;0.56;100.00;96403.81;5076133;28;20459;-89
2021/01/09 07:27:35;;;;;;;59.43;28.47;;;;;;;0.53;100.00;96400.88;5075838;28;20495;-89
2021/01/09 07:30:08;;;;;;;62.83;27.20;;;;;;;0.64;100.00;96405.53;5077371;28;20446;-89
2021/01/09 07:32:41;;;;;;;55.27;29.77;;;;;;;0.72;100.00;96405.84;5077356;28;20456;-88
2021/01/09 07:35:09;;;;;;;58.53;27.20;;;;;;;0.66;100.00;96403.13;5077079;28;20477;-89
2021/01/09 07:37:38;;;;;;;88.80;45.27;;;;;;;0.62;100.00;96401.91;5076384;28;20436;-90
2021/01/09 07:40:13;;;;;;;61.20;29.63;;;;;;;0.88;100.00;96405.94;5076399;28;20448;-89
2021/01/09 07:42:41;;;;;;;50.57;26.80;;;;;;;0.85;100.00;96414.84;5075988;28;20456;-89
2021/01/09 07:45:09;;;;;;;53.17;27.57;;;;;;;0.53;100.00;96410.78;5076720;28;20515;-89
2021/01/09 07:47:40;;;;;;;61.17;29.83;;;;;;;0.40;100.00;96408.50;5076676;28;20942;-89
2021/01/09 07:50:10;;;;;;;46.40;23.07;;;;;;;0.58;100.00;96420.69;5076669;28;20422;-90
2021/01/09 07:52:36;;;;;;;44.00;24.30;;;;;;;0.42;100.00;96416.72;5077091;28;21017;-90
2021/01/09 07:55:05;;;;;;;45.07;22.97;;;;;;;0.54;100.00;96418.25;5076409;28;20564;-88
2021/01/09 07:57:32;;;;;;;43.17;23.40;;;;;;;0.38;100.00;96421.50;5076327;28;20590;-88
2021/01/09 08:00:08;;;;;;;50.87;24.00;;;;;;;0.38;100.00;96428.72;5075720;28;20517;-87
2021/01/09 08:02:35;;;;;;;42.77;22.40;;;;;;;0.41;100.00;96431.19;5075530;28;20769;-88
2021/01/09 08:05:04;;;;;;;37.30;20.47;;;;;;;0.32;100.00;96426.03;5075688;28;20461;-88
2021/01/09 08:07:30;;;;;;;60.23;24.07;;;;;;;0.42;100.00;96437.22;5074949;28;20981;-87
2021/01/09 08:09:58;;;;;;;47.83;23.83;;;;;;;0.37;100.00;96435.25;5075785;28;20445;-89
2021/01/09 08:12:28;;;;;;;40.20;22.23;;;;;;;0.53;100.00;96443.34;5076193;28;20460;-88
2021/01/09 08:14:58;;;;;;;44.83;23.13;;;;;;;0.54;100.00;96444.06;5075648;28;20856;-87
2021/01/09 08:17:25;;;;;;;48.27;23.37;;;;;;;0.60;100.00;96446.75;5076202;28;20433;-88
2021/01/09 08:19:51;;;;;;;50.93;24.67;;;;;;;0.33;100.00;96445.34;5078745;28;20946;-87
2021/01/09 08:22:17;;;;;;;48.53;23.40;;;;;;;0.48;100.00;96451.25;5079588;28;20525;-89
2021/01/09 08:24:44;;;;;;;44.97;21.83;;;;;;;0.39;100.00;96452.16;5078884;28;20461;-89
2021/01/09 08:27:19;;;;;;;47.27;22.50;;;;;;;0.40;100.00;96450.97;5079290;28;20774;-88
2021/01/09 08:29:45;;;;;;;44.20;21.27;;;;;;;0.34;100.00;96444.88;5078987;28;20437;-88
2021/01/09 08:32:13;;;;;;;47.53;23.57;;;;;;;0.39;100.00;96448.78;5079212;28;20452;-88
2021/01/09 08:34:48;;;;;;;46.50;22.57;;;;;;;0.32;100.00;96449.91;5078412;28;20469;-87
2021/01/09 08:37:16;;;;;;;47.00;24.53;;;;;;;0.38;100.00;96447.31;5078581;28;20890;-87
2021/01/09 08:39:43;;;;;;;43.20;22.43;;;;;;;0.38;100.00;96447.31;5079876;28;20446;-88
2021/01/09 08:42:14;;;;;;;46.63;25.30;;;;;;;0.42;100.00;96456.53;5079651;28;20845;-89
2021/01/09 08:44:47;;;;;;;49.77;25.83;;;;;;;0.56;100.00;96462.91;5080063;28;20461;-88
2021/01/09 08:47:16;;;;;;;54.67;27.90;;;;;;;0.59;100.00;96458.59;5081064;28;20433;-88
2021/01/09 08:49:45;;;;;;;52.63;27.20;;;;;;;0.71;100.00;96460.13;5081604;28;20852;-87
2021/01/09 08:52:13;;;;;;;55.73;26.67;;;;;;;0.82;100.00;96460.19;5095974;28;20440;-88
2021/01/09 08:54:44;;;;;;;48.77;23.40;;;;;;;0.85;100.00;96473.25;5096206;28;20472;-89
2021/01/09 08:57:14;;;;;;;50.57;24.67;;;;;;;0.57;100.00;96468.94;5080182;28;20417;-88
2021/01/09 08:59:41;;;;;;;53.57;27.93;;;;;;;0.58;100.00;96468.47;5079504;28;20430;-88
2021/01/09 09:02:13;;;;;;;58.00;27.07;;;;;;;0.38;100.00;96469.28;5077915;28;20449;-88
2021/01/09 09:04:43;;;;;;;56.93;29.60;;;;;;;0.51;100.00;96472.28;5078857;28;20517;-87
2021/01/09 09:07:10;;;;;;;67.77;31.50;;;;;;;0.47;100.00;96476.34;5078536;28;20489;-87
2021/01/09 09:09:39;;;;;;;58.93;28.17;;;;;;;0.54;100.00;96476.66;5077816;28;20449;-88
2021/01/09 09:12:07;;;;;;;60.70;27.80;;;;;;;0.57;100.00;96482.22;5078172;28;20429;-89
2021/01/09 09:14:34;;;;;;;68.37;30.80;;;;;;;0.51;100.00;96472.28;5077680;28;20470;-88
2021/01/09 09:17:01;;;;;;;53.70;27.93;;;;;;;0.56;100.00;96473.53;5083113;28;20445;-88
2021/01/09 09:19:28;;;;;;;56.80;28.47;;;;;;;0.58;100.00;96475.72;5098729;28;20441;-88
2021/01/09 09:21:59;;;;;;;68.87;31.70;;;;;;;0.69;100.00;96489.78;5085026;28;20433;-87
2021/01/09 09:24:41;;;;;;;59.63;27.77;;;;;;;0.52;100.00;96484.38;5092044;28;20442;-86
2021/01/09 09:27:21;;;;;;;59.27;27.40;;;;;;;0.65;100.00;96488.56;5098694;28;20436;-86
2021/01/09 09:29:47;;;;;;;61.27;30.10;;;;;;;0.56;100.00;96491.38;5100231;28;20426;-86
2021/01/09 09:32:27;;;;;;;53.13;26.00;;;;;;;0.72;100.00;96493.47;5099873;28;20453;-87
2021/01/09 09:34:54;;;;;;;50.20;27.67;;;;;;;0.76;100.00;96499.25;5079878;28;20457;-88
2021/01/09 09:37:21;;;;;;;53.97;25.43;;;;;;;0.61;100.00;96494.09;5079787;28;20518;-87
2021/01/09 09:39:48;;;;;;;60.23;30.87;;;;;;;0.92;100.00;96501.31;5079251;28;20452;-88
2021/01/09 09:42:25;;;;;;;58.43;27.77;;;;;;;0.93;100.00;96505.44;5081969;28;20446;-88
2021/01/09 09:44:52;;;;;;;53.83;24.63;;;;;;;0.73;100.00;96508.91;5080074;28;20461;-88
2021/01/09 09:47:25;;;;;;;49.60;24.40;;;;;;;0.84;100.00;96514.31;5078106;28;20445;-88
2021/01/09 09:49:51;;;;;;;41.37;21.37;;;;;;;0.79;99.34;96517.63;5078547;28;20426;-87
2021/01/09 09:52:19;;;;;;;49.23;23.90;;;;;;;0.67;99.74;96510.78;5078315;28;20438;-87
2021/01/09 09:54:48;;;;;;;52.30;24.00;;;;;;;0.67;100.00;96518.75;5078456;28;20461;-86
2021/01/09 09:57:21;;;;;;;54.50;24.40;;;;;;;0.72;100.00;96518.06;5078145;28;20485;-87
2021/01/09 10:00:01;;;;;;;47.23;23.73;;;;;;;0.72;100.00;96518.06;5077045;28;20437;-87
2021/01/09 10:02:27;;;;;;;58.87;25.43;;;;;;;0.69;100.00;96511.03;5078330;28;20432;-87
2021/01/09 10:04:54;;;;;;;53.10;28.40;;;;;;;0.73;100.00;96506.25;5079457;28;20454;-86
2021/01/09 10:07:21;;;;;;;53.03;28.60;;;;;;;0.68;100.00;96509.59;5078269;28;20426;-87
2021/01/09 10:09:48;;;;;;;58.60;29.07;;;;;;;0.63;100.00;96507.59;5078123;28;20456;-88
2021/01/09 10:12:15;;;;;;;53.63;28.30;;;;;;;0.67;100.00;96502.81;5078285;28;20459;-87
2021/01/09 10:14:41;;;;;;;55.13;25.77;;;;;;;0.84;100.00;96505.63;5078240;28;20481;-86
2021/01/09 10:17:14;;;;;;;52.20;27.10;;;;;;;0.86;99.79;96497.91;5078358;28;20460;-86
2021/01/09 10:19:40;;;;;;;47.10;22.73;;;;;;;0.69;99.50;96512.97;5078356;28;20481;-86
2021/01/09 10:22:06;;;;;;;41.10;22.43;;;;;;;0.67;100.00;96500.16;5078275;28;20484;-86
2021/01/09 10:24:33;;;;;;;45.50;23.60;;;;;;;0.66;99.69;96508.63;5077491;28;20453;-86
2021/01/09 10:27:02;;;;;;;39.30;20.93;;;;;;;0.76;98.62;96507.22;5077604;28;20532;-87
2021/01/09 10:29:29;;;;;;;39.50;18.50;;;;;;;0.72;95.87;96502.13;5078862;28;20442;-85
2021/01/09 10:31:56;;;;;;;34.93;17.50;;;;;;;0.87;94.88;96513.38;5078814;28;20813;-85
2021/01/09 10:34:22;;;;;;;32.53;18.00;;;;;;;0.90;94.62;96507.13;5076802;28;20830;-86
2021/01/09 10:36:49;;;;;;;43.80;21.83;;;;;;;0.76;95.86;96517.84;5076474;28;20473;-86
2021/01/09 10:39:16;;;;;;;32.17;18.90;;;;;;;0.65;95.21;96507.16;5076623;28;20446;-86
2021/01/09 10:41:42;;;;;;;37.07;18.90;;;;;;;0.79;95.56;96514.97;5076595;28;20551;-85
2021/01/09 10:44:10;;;;;;;39.10;20.17;;;;;;;0.87;95.24;96518.69;5077519;28;20444;-86
2021/01/09 10:46:36;;;;;;;37.90;19.17;;;;;;;0.73;96.17;96516.88;5079564;28;20486;-86
2021/01/09 10:49:03;;;;;;;39.27;20.23;;;;;;;0.88;96.35;96522.03;5077244;28;20809;-86
2021/01/09 10:51:30;;;;;;;39.23;18.67;;;;;;;0.91;94.70;96519.19;5077782;28;20437;-86
2021/01/09 10:53:56;;;;;;;37.53;18.63;;;;;;;1.01;93.37;96517.09;5077862;28;20456;-86
2021/01/09 10:56:22;;;;;;;37.23;17.90;;;;;;;0.89;93.75;96513.63;5078102;28;20489;-86
2021/01/09 10:58:49;;;;;;;39.77;18.70;;;;;;;0.82;93.49;96508.00;5078126;28;20500;-86
2021/01/09 11:01:20;;;;;;;32.67;18.57;;;;;;;0.76;93.64;96507.22;5076599;28;20776;-89
2021/01/09 11:03:47;;;;;;;39.30;18.67;;;;;;;0.91;92.38;96503.25;5077209;28;20975;-89
2021/01/09 11:06:21;;;;;;;31.97;15.90;;;;;;;1.00;92.06;96507.69;5077100;28;20425;-88
2021/01/09 11:08:47;;;;;;;37.33;18.63;;;;;;;1.25;91.98;96503.50;5078336;28;20454;-89
2021/01/09 11:11:13;;;;;;;36.23;17.80;;;;;;;1.46;91.13;96512.78;5078018;28;20441;-89
2021/01/09 11:13:40;;;;;;;37.37;18.93;;;;;;;1.59;91.13;96510.44;5078977;28;20640;-90
2021/01/09 11:16:06;;;;;;;37.80;17.90;;;;;;;1.34;91.08;96511.28;5077826;28;20543;-88
2021/01/09 11:18:33;;;;;;;33.23;17.47;;;;;;;1.60;89.89;96509.22;5078631;28;20426;-88
2021/01/09 11:21:00;;;;;;;30.03;15.67;;;;;;;1.69;88.58;96511.72;5078069;28;20436;-88
2021/01/09 11:23:26;;;;;;;31.93;16.77;;;;;;;1.87;88.10;96511.31;5076288;28;20876;-87
2021/01/09 11:25:53;;;;;;;26.50;14.50;;;;;;;1.47;86.61;96511.59;5077933;28;20410;-89